Time;durP1;ratioP1;P1;durP2;ratioP2;P2;SDS_P1;SDS_P2;PMS_P1;PMS_P2;Temp;Humidity;BMP_temperature;BMP_pressure;BME280_temperature;BME280_humidity;BME280_pressure;Samples;Min_cycle;Max_cycle;Signal;HPM_P1;HPM_P2
2021/01/22 00:02:15;;;;;;;131.23;51.87;;;;;;;1.44;71.18;100593.13;5023643;28;20085;-66
2021/01/22 00:04:42;;;;;;;134.07;51.37;;;;;;;1.35;71.54;100596.25;5023849;28;20064;-66
2021/01/22 00:07:08;;;;;;;119.27;49.10;;;;;;;1.55;70.90;100590.78;5023569;28;20057;-66
2021/01/22 00:09:33;;;;;;;135.50;52.97;;;;;;;1.59;70.35;100589.69;5023823;28;20403;-66
2021/01/22 00:11:59;;;;;;;132.83;51.17;;;;;;;1.73;69.65;100589.75;5023247;28;20129;-66
2021/01/22 00:14:24;;;;;;;146.40;54.90;;;;;;;1.73;69.04;100588.91;5023564;28;20038;-69
2021/01/22 00:16:50;;;;;;;145.93;55.13;;;;;;;1.56;69.89;100585.47;5023309;28;20076;-69
2021/01/22 00:19:15;;;;;;;140.20;53.90;;;;;;;1.61;69.84;100582.63;5023230;28;20092;-67
2021/01/22 00:21:40;;;;;;;148.93;56.77;;;;;;;1.68;69.57;100583.13;5023170;28;20099;-63
2021/01/22 00:24:06;;;;;;;142.83;55.30;;;;;;;1.65;69.46;100585.91;5023557;28;20048;-64
2021/01/22 00:26:32;;;;;;;149.20;56.33;;;;;;;1.46;70.38;100588.69;5023413;28;20025;-67
2021/01/22 00:28:57;;;;;;;143.10;55.67;;;;;;;1.28;71.18;100580.06;5023066;28;20042;-69
2021/01/22 00:31:23;;;;;;;145.40;55.10;;;;;;;1.31;71.63;100579.91;5023060;28;20092;-69
2021/01/22 00:33:48;;;;;;;129.07;52.47;;;;;;;1.26;71.61;100584.53;5022172;28;20034;-69
2021/01/22 00:36:14;;;;;;;142.87;57.17;;;;;;;1.67;69.67;100586.66;5022163;28;20034;-66
2021/01/22 00:38:39;;;;;;;135.07;50.90;;;;;;;1.68;68.60;100589.19;5023329;28;20033;-65
2021/01/22 00:41:04;;;;;;;136.27;51.70;;;;;;;1.66;68.98;100569.31;5022964;28;20044;-66
2021/01/22 00:43:30;;;;;;;131.87;50.30;;;;;;;1.64;68.93;100584.22;5023155;28;20105;-69
2021/01/22 00:45:55;;;;;;;124.57;48.60;;;;;;;1.57;69.79;100584.56;5022939;28;20100;-69
2021/01/22 00:48:21;;;;;;;130.53;50.73;;;;;;;1.70;68.69;100568.22;5023019;28;20030;-69
2021/01/22 00:50:46;;;;;;;120.00;47.93;;;;;;;1.68;68.66;100565.69;5022683;28;20227;-69
2021/01/22 00:53:12;;;;;;;124.70;48.63;;;;;;;1.59;68.76;100561.81;5023091;28;20112;-65
2021/01/22 00:55:37;;;;;;;126.60;48.23;;;;;;;1.60;68.96;100563.50;5021550;28;20108;-69
2021/01/22 00:58:03;;;;;;;125.40;48.93;;;;;;;1.52;69.24;100562.25;5022914;28;20038;-66
2021/01/22 01:00:28;;;;;;;118.53;48.17;;;;;;;1.51;69.51;100557.94;5022953;28;20045;-66
2021/01/22 01:02:54;;;;;;;119.33;47.00;;;;;;;1.52;69.37;100560.47;5022858;28;20323;-65
2021/01/22 01:05:19;;;;;;;126.43;48.57;;;;;;;1.65;68.34;100565.00;5022625;28;20388;-66
2021/01/22 01:07:45;;;;;;;148.53;49.53;;;;;;;1.57;68.36;100566.28;5022696;28;20049;-66
2021/01/22 01:10:11;;;;;;;142.00;50.90;;;;;;;1.57;68.51;100553.22;5022933;28;20093;-69
2021/01/22 01:12:36;;;;;;;129.13;48.73;;;;;;;1.53;67.08;100561.31;5022424;28;20038;-66
2021/01/22 01:15:04;;;;;;;122.30;49.17;;;;;;;1.44;67.71;100547.00;5022476;28;20042;-69
2021/01/22 01:17:29;;;;;;;123.33;47.00;;;;;;;1.34;68.56;100550.19;5022534;28;20048;-66
2021/01/22 01:19:55;;;;;;;126.50;48.07;;;;;;;1.40;67.82;100542.88;5022496;28;20105;-66
2021/01/22 01:22:20;;;;;;;125.00;46.17;;;;;;;1.37;67.58;100550.03;5022660;28;20260;-67
2021/01/22 01:24:46;;;;;;;128.83;47.57;;;;;;;1.16;68.70;100549.44;5022979;28;20054;-69
2021/01/22 01:27:11;;;;;;;118.70;45.20;;;;;;;1.21;69.02;100547.41;5022642;28;20100;-69
2021/01/22 01:29:36;;;;;;;132.83;46.00;;;;;;;1.49;67.78;100539.75;5022838;28;20097;-66
2021/01/22 01:32:02;;;;;;;133.97;47.00;;;;;;;1.42;67.23;100541.03;5022459;28;20243;-66
2021/01/22 01:34:28;;;;;;;131.20;47.37;;;;;;;1.27;68.28;100544.47;5022819;28;20275;-66
2021/01/22 01:36:53;;;;;;;122.50;45.37;;;;;;;1.27;67.68;100542.72;5022485;28;20029;-66
2021/01/22 01:39:18;;;;;;;130.70;47.17;;;;;;;1.09;69.05;100540.25;5022825;28;20101;-66
2021/01/22 01:41:44;;;;;;;123.47;44.80;;;;;;;1.33;68.58;100535.47;5022444;28;20057;-69
2021/01/22 01:44:09;;;;;;;120.63;45.03;;;;;;;1.42;67.54;100543.63;5022581;28;20339;-69
2021/01/22 01:46:35;;;;;;;135.83;46.43;;;;;;;1.21;69.25;100539.59;5022335;28;20033;-66
2021/01/22 01:49:01;;;;;;;130.87;45.17;;;;;;;0.80;70.47;100536.56;5026450;28;20116;-66
2021/01/22 01:51:27;;;;;;;123.07;45.63;;;;;;;0.74;71.33;100542.09;5026009;28;20092;-66
2021/01/22 01:53:53;;;;;;;121.43;43.33;;;;;;;1.06;69.85;100514.34;5026256;28;20053;-66
2021/01/22 01:56:20;;;;;;;115.20;43.30;;;;;;;1.00;69.80;100512.03;5025905;28;20037;-66
2021/01/22 01:58:46;;;;;;;111.63;40.83;;;;;;;1.36;69.32;100504.84;5025935;28;20212;-66
2021/01/22 02:01:12;;;;;;;115.30;43.00;;;;;;;1.32;68.77;100507.69;5025888;28;20037;-67
2021/01/22 02:03:38;;;;;;;121.23;45.07;;;;;;;1.20;69.45;100501.38;5026355;28;20103;-64
2021/01/22 02:06:06;;;;;;;105.27;42.50;;;;;;;1.12;69.19;100509.63;5025706;28;20025;-64
2021/01/22 02:08:32;;;;;;;108.10;42.17;;;;;;;0.98;70.22;100516.50;5026134;28;20045;-63
2021/01/22 02:11:01;;;;;;;114.90;43.20;;;;;;;0.98;70.38;100517.34;5025546;28;20030;-64
2021/01/22 02:13:29;;;;;;;111.03;41.23;;;;;;;1.03;69.64;100514.47;5025658;28;20105;-67
2021/01/22 02:15:55;;;;;;;113.67;43.00;;;;;;;0.92;70.33;100513.28;5026065;28;20034;-63
2021/01/22 02:18:21;;;;;;;115.17;43.00;;;;;;;0.88;70.46;100514.38;5025793;28;20041;-64
2021/01/22 02:21:14;;;;;;;104.80;39.80;;;;;;;1.17;69.28;100512.84;5006051;28;20221;-64
2021/01/22 02:23:42;;;;;;;93.93;36.13;;;;;;;1.15;69.02;100521.66;5005836;28;20348;-67
2021/01/22 02:26:27;;;;;;;96.43;37.10;;;;;;;0.81;70.29;100523.44;5005627;28;20277;-66
2021/01/22 02:28:56;;;;;;;97.23;36.43;;;;;;;0.61;71.03;100524.50;5005008;28;20109;-64
2021/01/22 02:31:24;;;;;;;142.90;50.97;;;;;;;0.75;70.47;100521.16;5005806;28;20084;-64
2021/01/22 02:33:53;;;;;;;134.43;46.70;;;;;;;0.89;69.68;100513.44;5006020;28;20212;-67
2021/01/22 02:36:21;;;;;;;115.30;42.83;;;;;;;0.96;69.60;100525.25;5005580;28;20069;-64
2021/01/22 02:38:47;;;;;;;82.87;32.17;;;;;;;1.00;68.66;100518.09;5006051;28;20066;-66
2021/01/22 02:41:15;;;;;;;82.20;31.93;;;;;;;0.91;69.88;100511.59;5005760;28;20026;-63
2021/01/22 02:43:42;;;;;;;80.37;33.40;;;;;;;0.78;70.59;100502.75;5005533;28;20042;-64
2021/01/22 02:46:08;;;;;;;81.37;34.10;;;;;;;0.61;71.60;100503.66;5005360;28;20046;-67
2021/01/22 02:48:33;;;;;;;81.73;32.77;;;;;;;0.65;70.79;100506.94;5005691;28;20571;-66
2021/01/22 02:50:59;;;;;;;72.83;31.73;;;;;;;0.57;71.29;100503.88;5005139;28;20037;-64
2021/01/22 02:53:24;;;;;;;71.73;29.20;;;;;;;0.61;72.12;100492.38;5005397;28;20062;-63
2021/01/22 02:55:55;;;;;;;67.90;29.07;;;;;;;0.71;72.12;100501.41;5005195;28;20097;-67
2021/01/22 02:58:37;;;;;;;62.47;25.97;;;;;;;0.79;71.49;100507.03;5004800;28;20045;-64
2021/01/22 03:01:08;;;;;;;69.27;25.60;;;;;;;0.90;71.64;100511.69;5005163;28;20030;-64
2021/01/22 03:03:53;;;;;;;65.13;25.43;;;;;;;0.89;71.13;100508.22;5005280;28;20108;-67
2021/01/22 03:06:23;;;;;;;58.13;24.77;;;;;;;0.87;71.45;100501.41;5005053;28;20033;-67
2021/01/22 03:08:54;;;;;;;61.83;26.33;;;;;;;0.79;71.81;100501.84;5005270;28;20068;-67
2021/01/22 03:11:22;;;;;;;70.27;28.13;;;;;;;1.07;70.02;100492.56;5004811;28;20080;-67
2021/01/22 03:13:50;;;;;;;64.77;27.17;;;;;;;0.84;71.21;100489.38;5005038;28;20336;-64
2021/01/22 03:16:16;;;;;;;67.17;27.93;;;;;;;0.80;70.99;100492.25;5004714;28;20051;-67
2021/01/22 03:19:04;;;;;;;76.70;28.97;;;;;;;0.67;71.79;100486.00;5007504;28;20061;-67
2021/01/22 03:21:29;;;;;;;65.67;28.63;;;;;;;1.00;70.09;100481.56;5024649;28;20026;-67
2021/01/22 03:23:56;;;;;;;72.90;29.43;;;;;;;0.98;70.17;100486.03;5024549;28;20057;-63
2021/01/22 03:26:21;;;;;;;73.50;31.00;;;;;;;1.18;69.34;100485.81;5024221;28;20347;-63
2021/01/22 03:28:47;;;;;;;74.17;31.33;;;;;;;0.99;70.37;100481.66;5024509;28;20033;-66
2021/01/22 03:31:12;;;;;;;82.93;32.30;;;;;;;1.04;70.75;100490.06;5024304;28;20052;-64
2021/01/22 03:33:38;;;;;;;68.80;30.83;;;;;;;1.31;68.76;100490.34;5024300;28;20053;-67
2021/01/22 03:36:04;;;;;;;73.50;31.77;;;;;;;1.14;69.54;100489.53;5024109;28;20034;-66
2021/01/22 03:38:30;;;;;;;77.33;32.73;;;;;;;1.30;68.70;100506.94;5024176;28;20315;-64
2021/01/22 03:40:56;;;;;;;80.03;35.53;;;;;;;1.14;68.63;100504.34;5023886;28;20030;-64
2021/01/22 03:43:21;;;;;;;84.90;36.27;;;;;;;1.13;69.38;100511.31;5024013;28;20046;-64
2021/01/22 03:45:47;;;;;;;72.83;32.73;;;;;;;0.75;70.22;100510.72;5023700;28;20094;-67
2021/01/22 03:48:12;;;;;;;90.27;34.93;;;;;;;0.72;70.49;100507.44;5023929;28;20108;-67
2021/01/22 03:50:38;;;;;;;78.40;33.43;;;;;;;0.95;69.71;100501.84;5023616;28;20034;-64
2021/01/22 03:53:03;;;;;;;86.10;34.70;;;;;;;0.86;70.24;100505.78;5023860;28;20033;-63
2021/01/22 03:55:29;;;;;;;90.80;37.40;;;;;;;0.84;70.27;100494.59;5023975;28;20326;-66
2021/01/22 03:57:54;;;;;;;89.20;36.37;;;;;;;0.69;70.88;100502.41;5023803;28;20211;-63
2021/01/22 04:00:20;;;;;;;82.57;34.97;;;;;;;0.52;72.01;100485.88;5023542;28;20085;-67
2021/01/22 04:02:45;;;;;;;100.00;38.93;;;;;;;0.54;72.56;100483.19;5023597;28;20029;-67
2021/01/22 04:05:12;;;;;;;96.50;38.17;;;;;;;0.87;71.11;100480.56;5023632;28;20041;-63
2021/01/22 04:07:38;;;;;;;95.67;38.33;;;;;;;1.06;70.96;100483.03;5023526;28;20029;-64
2021/01/22 04:10:05;;;;;;;92.60;37.67;;;;;;;1.02;70.57;100499.75;5023299;28;20343;-64
2021/01/22 04:12:30;;;;;;;95.97;37.20;;;;;;;0.87;71.50;100499.66;5023289;28;20319;-67
2021/01/22 04:14:56;;;;;;;89.70;36.87;;;;;;;1.17;70.25;100507.63;5023593;28;20080;-64
2021/01/22 04:17:21;;;;;;;96.27;40.00;;;;;;;1.11;71.18;100507.09;5023434;28;20291;-67
2021/01/22 04:19:46;;;;;;;89.53;38.63;;;;;;;1.20;70.53;100515.28;5023211;28;20045;-63
2021/01/22 04:22:12;;;;;;;100.20;39.73;;;;;;;1.25;69.96;100513.25;5023424;28;20116;-64
2021/01/22 04:24:37;;;;;;;101.87;44.50;;;;;;;1.35;69.17;100520.56;5022187;28;20375;-64
2021/01/22 04:27:03;;;;;;;98.30;44.60;;;;;;;0.94;71.03;100518.41;5023538;28;20089;-67
2021/01/22 04:29:29;;;;;;;99.53;43.40;;;;;;;0.89;71.36;100516.06;5023496;28;20370;-67
2021/01/22 04:31:54;;;;;;;95.80;39.73;;;;;;;1.00;71.15;100512.03;5023057;28;20124;-66
2021/01/22 04:34:19;;;;;;;110.77;43.07;;;;;;;1.18;70.12;100516.28;5023478;28;20038;-67
2021/01/22 04:36:45;;;;;;;99.93;38.70;;;;;;;1.09;68.91;100512.41;5023168;28;20332;-64
2021/01/22 04:39:10;;;;;;;91.93;36.67;;;;;;;0.85;69.08;100514.53;5023362;28;20036;-64
2021/01/22 04:41:36;;;;;;;89.90;38.73;;;;;;;0.90;68.16;100514.28;5022875;28;20033;-65
2021/01/22 04:44:02;;;;;;;87.80;37.13;;;;;;;1.07;67.47;100502.97;5023099;28;20041;-64
2021/01/22 04:46:34;;;;;;;90.37;37.83;;;;;;;1.09;66.95;100491.53;5022941;28;20034;-67
2021/01/22 04:49:00;;;;;;;88.83;36.77;;;;;;;0.96;67.26;100495.72;5023154;28;20312;-66
2021/01/22 04:51:28;;;;;;;90.43;37.07;;;;;;;0.73;67.76;100499.53;5022747;28;20036;-64
2021/01/22 04:53:57;;;;;;;87.93;35.60;;;;;;;0.64;67.99;100507.84;5023117;28;20113;-64
2021/01/22 04:56:25;;;;;;;99.90;36.90;;;;;;;0.22;69.24;100510.91;5022806;28;20037;-63
2021/01/22 04:58:54;;;;;;;87.60;36.30;;;;;;;0.10;70.43;100506.31;5023030;28;20104;-67
2021/01/22 05:01:21;;;;;;;94.60;35.97;;;;;;;-0.18;71.59;100512.88;5022802;28;20072;-67
2021/01/22 05:03:47;;;;;;;85.50;35.37;;;;;;;-0.29;71.24;100473.53;5023047;28;20029;-67
2021/01/22 05:06:14;;;;;;;114.57;45.10;;;;;;;-0.14;71.94;100496.19;5022794;28;20049;-64
2021/01/22 05:08:39;;;;;;;136.67;56.03;;;;;;;-0.06;72.11;100486.22;5022656;28;20042;-64
2021/01/22 05:11:05;;;;;;;161.37;67.67;;;;;;;0.23;70.67;100489.16;5022546;28;20030;-67
2021/01/22 05:13:31;;;;;;;238.70;82.73;;;;;;;0.16;70.81;100479.97;5022741;28;20251;-67
2021/01/22 05:16:12;;;;;;;208.00;72.50;;;;;;;0.22;70.68;100500.50;5022544;28;20037;-67
2021/01/22 05:18:38;;;;;;;185.47;70.37;;;;;;;0.35;70.55;100498.09;5022607;28;20037;-63
2021/01/22 05:21:09;;;;;;;214.63;73.50;;;;;;;0.45;69.90;100500.16;5022479;28;20042;-67
2021/01/22 05:23:37;;;;;;;136.00;52.70;;;;;;;0.46;68.76;100501.00;5026098;28;20049;-63
2021/01/22 05:26:10;;;;;;;92.33;36.63;;;;;;;0.35;68.78;100495.50;5026403;28;20076;-67
2021/01/22 05:28:48;;;;;;;80.17;33.23;;;;;;;0.19;68.86;100485.03;5025470;28;20137;-67
2021/01/22 05:31:16;;;;;;;80.30;32.37;;;;;;;0.04;69.55;100493.63;5026386;28;20456;-63
2021/01/22 05:33:55;;;;;;;81.93;33.07;;;;;;;0.06;70.58;100479.59;5026630;28;20114;-64
2021/01/22 05:36:24;;;;;;;89.17;34.40;;;;;;;0.22;69.37;100474.44;5026421;28;20037;-64
2021/01/22 05:38:51;;;;;;;81.27;33.87;;;;;;;0.20;70.08;100471.09;5026570;28;20278;-67
2021/01/22 05:41:16;;;;;;;101.07;40.87;;;;;;;0.10;70.13;100478.53;5025083;28;20056;-64
2021/01/22 05:43:42;;;;;;;94.20;38.47;;;;;;;0.27;70.17;100485.47;5026234;28;20299;-67
2021/01/22 05:46:15;;;;;;;106.23;45.27;;;;;;;0.28;70.12;100479.34;5026084;28;20033;-64
2021/01/22 05:48:42;;;;;;;103.18;43.92;;;;;;;0.47;69.61;100489.66;5026423;28;20034;-67
2021/01/22 05:51:07;;;;;;;105.70;46.37;;;;;;;0.52;69.72;100482.44;5026232;28;20034;-67
2021/01/22 05:53:33;;;;;;;116.40;44.73;;;;;;;0.48;69.03;100480.91;5026295;28;20033;-67
2021/01/22 05:56:07;;;;;;;112.63;44.13;;;;;;;0.46;70.05;100486.22;5025907;28;20068;-67
2021/01/22 05:58:33;;;;;;;124.43;48.47;;;;;;;0.54;69.73;100473.63;5026102;28;20048;-64
2021/01/22 06:01:04;;;;;;;129.93;49.73;;;;;;;0.78;68.79;100489.72;5025876;28;20045;-67
2021/01/22 06:03:29;;;;;;;128.20;51.17;;;;;;;0.87;68.72;100489.22;5025942;28;20037;-67
2021/01/22 06:05:56;;;;;;;155.00;54.30;;;;;;;1.00;67.73;100478.13;5025745;28;20034;-67
2021/01/22 06:08:21;;;;;;;132.80;53.60;;;;;;;0.74;68.88;100472.56;5026029;28;20045;-67
2021/01/22 06:10:48;;;;;;;136.23;48.33;;;;;;;0.89;68.60;100481.31;5025600;28;20025;-63
2021/01/22 06:13:17;;;;;;;130.93;51.70;;;;;;;0.85;69.03;100482.41;5025802;28;20050;-67
2021/01/22 06:15:44;;;;;;;176.27;65.80;;;;;;;0.99;68.43;100476.44;5025564;28;20323;-67
2021/01/22 06:18:15;;;;;;;131.20;48.80;;;;;;;0.83;68.77;100466.84;5025735;28;20104;-64
2021/01/22 06:20:42;;;;;;;117.00;44.97;;;;;;;1.12;68.06;100474.88;5025394;28;20038;-64
2021/01/22 06:23:12;;;;;;;100.30;45.53;;;;;;;0.99;69.14;100481.66;5025514;28;20100;-64
2021/01/22 06:25:40;;;;;;;116.20;46.87;;;;;;;1.02;69.69;100486.72;5024193;28;20042;-67
2021/01/22 06:28:07;;;;;;;119.73;50.07;;;;;;;1.09;69.22;100483.72;5025366;28;20308;-64
2021/01/22 06:30:34;;;;;;;114.97;47.03;;;;;;;1.36;68.60;100494.41;5025180;28;20042;-63
2021/01/22 06:33:00;;;;;;;115.60;50.90;;;;;;;1.38;69.08;100502.13;5024651;28;20346;-63
2021/01/22 06:35:28;;;;;;;145.90;60.80;;;;;;;1.41;68.78;100500.19;5024324;28;20034;-67
2021/01/22 06:37:55;;;;;;;140.90;57.63;;;;;;;1.41;69.57;100502.81;5025309;28;20239;-64
2021/01/22 06:40:20;;;;;;;130.27;53.67;;;;;;;1.65;69.57;100499.75;5024945;28;20026;-67
2021/01/22 06:42:47;;;;;;;144.37;52.53;;;;;;;1.85;68.83;100497.69;5024838;28;20030;-67
2021/01/22 06:45:13;;;;;;;143.40;53.07;;;;;;;1.85;69.13;100489.00;5024778;28;20025;-69
2021/01/22 06:47:39;;;;;;;153.63;62.50;;;;;;;1.88;69.58;100491.44;5025058;28;20084;-70
2021/01/22 06:50:25;;;;;;;143.77;63.70;;;;;;;1.96;69.51;100491.00;5024569;28;20311;-70
2021/01/22 06:53:02;;;;;;;154.67;63.47;;;;;;;2.06;69.89;100492.13;5024516;28;20248;-70
2021/01/22 06:55:28;;;;;;;194.93;79.37;;;;;;;2.06;69.95;100486.91;5024643;28;20026;-67
2021/01/22 06:58:22;;;;;;;209.73;92.67;;;;;;;2.21;69.65;100491.25;5025013;28;20069;-68
2021/01/22 07:00:48;;;;;;;306.55;115.00;;;;;;;2.24;70.23;100483.25;5024979;28;20033;-68
2021/01/22 07:03:35;;;;;;;201.97;85.70;;;;;;;2.30;69.90;100489.88;5024626;28;20225;-64
2021/01/22 07:06:21;;;;;;;163.23;69.37;;;;;;;2.31;69.72;100481.09;5024383;28;20036;-64
2021/01/22 07:08:49;;;;;;;138.77;59.53;;;;;;;2.46;69.56;100467.97;5024474;28;20044;-64
2021/01/22 07:11:16;;;;;;;163.50;76.90;;;;;;;2.83;67.98;100469.16;5024372;28;20085;-63
2021/01/22 07:13:42;;;;;;;142.70;62.13;;;;;;;2.73;68.49;100470.66;5024261;28;20316;-64
2021/01/22 07:16:17;;;;;;;125.03;55.33;;;;;;;2.95;68.34;100475.41;5024334;28;20061;-68
2021/01/22 07:18:44;;;;;;;126.53;50.13;;;;;;;3.13;67.87;100476.88;5060743;28;20368;-65
2021/01/22 07:21:29;;;;;;;154.43;55.80;;;;;;;3.21;67.76;100465.94;5062391;28;20029;-66
2021/01/22 07:23:58;;;;;;;172.37;62.73;;;;;;;3.33;67.38;100469.56;5064071;28;20052;-67
2021/01/22 07:26:35;;;;;;;103.20;46.00;;;;;;;3.36;66.85;100451.88;5063633;28;20037;-69
2021/01/22 07:29:13;;;;;;;113.40;48.40;;;;;;;3.45;66.48;100453.06;5063941;28;20033;-66
2021/01/22 07:32:06;;;;;;;96.63;42.70;;;;;;;3.33;67.37;100453.84;5063530;28;20374;-65
2021/01/22 07:34:51;;;;;;;91.30;39.60;;;;;;;3.46;67.03;100457.34;5064103;28;20107;-68
2021/01/22 07:37:19;;;;;;;289.70;78.27;;;;;;;3.46;66.93;100460.81;5063418;28;20076;-68
2021/01/22 07:39:46;;;;;;;114.47;43.13;;;;;;;3.66;66.64;100464.75;5062905;28;20113;-70
2021/01/22 07:42:17;;;;;;;94.53;39.77;;;;;;;3.68;66.62;100460.25;5063452;28;20249;-70
2021/01/22 07:44:45;;;;;;;151.97;53.67;;;;;;;3.76;66.99;100463.19;5063207;28;20041;-66
2021/01/22 07:47:22;;;;;;;115.17;43.47;;;;;;;4.11;66.45;100457.38;5063428;28;20233;-66
2021/01/22 07:50:00;;;;;;;97.93;39.67;;;;;;;4.35;65.04;100461.00;5063654;28;20245;-70
2021/01/22 07:52:27;;;;;;;134.57;47.03;;;;;;;4.69;64.63;100462.13;5063286;28;20028;-68
2021/01/22 07:54:54;;;;;;;73.10;32.30;;;;;;;4.96;63.52;100461.97;5063699;28;20029;-65
2021/01/22 07:57:21;;;;;;;71.40;29.03;;;;;;;4.91;63.83;100466.69;5063308;28;20032;-68
2021/01/22 07:59:48;;;;;;;68.88;27.85;;;;;;;4.88;63.73;100476.56;5063102;28;20259;-67
2021/01/22 08:02:21;;;;;;;65.47;27.15;;;;;;;4.82;63.78;100473.44;5063093;28;20029;-67
2021/01/22 08:04:58;;;;;;;59.80;26.33;;;;;;;5.07;63.71;100463.81;5063461;28;20044;-68
2021/01/22 08:07:52;;;;;;;62.30;26.60;;;;;;;5.30;63.13;100456.94;5063093;28;20055;-70
2021/01/22 08:10:18;;;;;;;;;;;;;;;5.27;63.36;100455.38;5063143;28;20109;-72
2021/01/22 08:12:58;;;;;;;58.63;27.98;;;;;;;5.48;62.65;100458.25;5062322;28;19909;-68
2021/01/22 08:15:24;;;;;;;73.93;30.70;;;;;;;5.52;63.14;100459.69;5062681;28;20341;-68
2021/01/22 08:17:51;;;;;;;71.65;32.58;;;;;;;5.63;62.81;100472.03;5062928;28;20211;-64
2021/01/22 08:20:18;;;;;;;73.00;31.85;;;;;;;5.69;62.90;100455.81;5062643;28;20068;-67
2021/01/22 08:22:57;;;;;;;63.40;29.55;;;;;;;5.68;63.84;100451.53;5062574;28;20033;-66
2021/01/22 08:25:35;;;;;;;75.32;27.70;;;;;;;5.79;63.57;100448.94;5063070;28;20051;-70
2021/01/22 08:28:02;;;;;;;102.03;35.10;;;;;;;5.75;63.52;100458.84;5062821;28;20040;-67
2021/01/22 08:30:29;;;;;;;51.53;24.45;;;;;;;5.61;63.45;100453.75;5062505;28;20044;-69
2021/01/22 08:32:56;;;;;;;51.25;25.40;;;;;;;5.37;64.62;100445.88;5062457;28;20125;-71
2021/01/22 08:35:26;;;;;;;55.33;26.63;;;;;;;5.36;64.73;100448.63;5062370;28;20146;-70
2021/01/22 08:37:52;;;;;;;54.25;25.60;;;;;;;5.49;64.43;100444.16;5061302;28;20308;-67
2021/01/22 08:40:18;;;;;;;71.30;27.38;;;;;;;5.56;63.87;100445.38;5062329;28;20044;-69
2021/01/22 08:43:12;;;;;;;58.95;23.85;;;;;;;5.59;64.84;100439.06;5060926;28;20043;-66
2021/01/22 08:45:39;;;;;;;42.70;20.70;;;;;;;5.73;64.49;100420.47;5061094;28;20033;-67
2021/01/22 08:48:05;;;;;;;45.63;22.45;;;;;;;6.00;63.18;100425.47;5061846;28;20079;-67
2021/01/22 08:50:30;;;;;;;51.92;22.33;;;;;;;6.15;63.06;100410.34;5061088;28;20033;-70
2021/01/22 08:53:14;;;;;;;55.65;25.00;;;;;;;6.17;62.90;100409.25;5062170;28;20032;-74
2021/01/22 08:55:40;;;;;;;58.97;24.30;;;;;;;6.11;63.95;100415.00;5062242;28;20323;-67
2021/01/22 08:58:10;;;;;;;47.80;23.00;;;;;;;6.53;61.11;100410.03;5061802;28;20200;-69
2021/01/22 09:00:38;;;;;;;53.25;23.40;;;;;;;6.73;60.40;100398.78;5062274;28;20036;-66
2021/01/22 09:03:18;;;;;;;48.30;22.30;;;;;;;6.50;61.09;100392.69;5062397;28;20316;-79
2021/01/22 09:05:54;;;;;;;61.72;25.00;;;;;;;6.33;61.92;100396.63;5048666;28;20041;-66
2021/01/22 09:08:21;;;;;;;55.40;24.42;;;;;;;6.42;62.33;100392.44;5031308;28;20320;-70
2021/01/22 09:10:47;;;;;;;58.00;24.77;;;;;;;6.65;61.62;100399.38;5021071;28;20407;-69
2021/01/22 09:13:15;;;;;;;50.08;23.83;;;;;;;6.65;62.27;100391.47;5022568;28;20041;-67
2021/01/22 09:15:42;;;;;;;56.30;25.38;;;;;;;6.71;61.52;100385.72;5022466;28;20512;-67
2021/01/22 09:18:21;;;;;;;57.45;25.70;;;;;;;7.17;60.40;100370.66;5029541;28;20215;-70
2021/01/22 09:21:06;;;;;;;59.70;26.48;;;;;;;6.66;61.32;100345.78;5042374;28;20041;-74
2021/01/22 09:23:32;;;;;;;;;;;;;;;6.87;62.05;100371.34;5042792;28;20060;-69
2021/01/22 09:26:00;;;;;;;61.45;28.50;;;;;;;6.90;60.85;100365.84;5041794;28;19913;-69
2021/01/22 09:28:26;;;;;;;71.07;30.33;;;;;;;6.99;61.10;100355.41;5042165;28;20294;-69
2021/01/22 09:30:51;;;;;;;54.22;26.38;;;;;;;6.83;61.33;100352.31;5041882;28;20041;-66
2021/01/22 09:33:17;;;;;;;64.07;27.75;;;;;;;6.90;61.57;100355.31;5042038;28;20032;-70
2021/01/22 09:35:43;;;;;;;62.83;30.10;;;;;;;6.75;62.27;100353.91;5041815;28;20189;-68
2021/01/22 09:38:08;;;;;;;66.88;29.70;;;;;;;6.65;62.34;100341.47;5042243;28;20018;-68
2021/01/22 09:40:35;;;;;;;81.90;31.60;;;;;;;6.71;62.71;100337.53;5041460;28;20044;-72
2021/01/22 09:43:00;;;;;;;69.97;29.83;;;;;;;6.66;62.21;100327.38;5022658;28;20025;-67
2021/01/22 09:45:26;;;;;;;65.07;27.48;;;;;;;6.64;62.31;100325.81;5021948;28;20026;-70
2021/01/22 09:47:51;;;;;;;54.10;27.70;;;;;;;6.51;62.15;100314.59;5022131;28;20072;-67
2021/01/22 09:50:18;;;;;;;57.00;26.33;;;;;;;6.51;62.43;100302.28;5021933;28;20026;-72
2021/01/22 09:52:44;;;;;;;54.58;26.48;;;;;;;6.56;62.44;100315.91;5022008;28;20251;-69
2021/01/22 09:55:12;;;;;;;56.42;26.73;;;;;;;6.64;62.26;100308.22;5022577;28;20092;-67
2021/01/22 09:57:37;;;;;;;56.50;27.42;;;;;;;6.62;62.48;100304.88;5021749;28;20045;-70
2021/01/22 10:00:05;;;;;;;57.80;27.27;;;;;;;6.63;62.25;100308.34;5022286;28;20034;-66
2021/01/22 10:02:30;;;;;;;68.63;27.58;;;;;;;6.76;61.72;100298.50;5021900;28;20030;-68
2021/01/22 10:04:56;;;;;;;58.42;26.33;;;;;;;6.51;63.13;100272.50;5022467;28;20373;-73
2021/01/22 10:07:22;;;;;;;58.10;25.88;;;;;;;6.75;62.41;100285.47;5022035;28;20034;-71
2021/01/22 10:09:47;;;;;;;65.05;28.17;;;;;;;6.93;61.35;100290.06;5025502;28;20053;-64
2021/01/22 10:12:13;;;;;;;53.60;24.40;;;;;;;7.17;60.48;100281.94;5025290;28;20105;-66
2021/01/22 10:14:39;;;;;;;46.38;22.67;;;;;;;7.25;59.29;100276.03;5025600;28;20093;-66
2021/01/22 10:17:05;;;;;;;52.42;21.98;;;;;;;7.08;59.11;100269.53;5024329;28;20032;-67
2021/01/22 10:19:30;;;;;;;48.20;23.42;;;;;;;7.60;58.58;100262.56;5025231;28;20042;-71
2021/01/22 10:21:55;;;;;;;54.53;24.85;;;;;;;7.58;59.13;100262.69;5025286;28;20046;-71
2021/01/22 10:24:21;;;;;;;54.00;23.52;;;;;;;7.35;60.38;100261.19;5025255;28;20034;-63
2021/01/22 10:26:46;;;;;;;52.40;24.90;;;;;;;7.23;60.31;100244.56;5025115;28;20025;-65
2021/01/22 10:29:12;;;;;;;50.20;24.90;;;;;;;7.18;60.77;100254.66;5025619;28;20359;-65
2021/01/22 10:31:38;;;;;;;59.50;25.73;;;;;;;7.22;61.50;100242.91;5025060;28;20053;-69
2021/01/22 10:34:04;;;;;;;54.88;26.50;;;;;;;7.20;60.51;100242.19;5025474;28;20026;-71
2021/01/22 10:36:29;;;;;;;51.85;26.45;;;;;;;7.13;60.42;100245.47;5025244;28;20034;-64
2021/01/22 10:38:55;;;;;;;50.67;24.52;;;;;;;7.15;59.99;100239.09;5025047;28;20038;-71
2021/01/22 10:41:21;;;;;;;53.13;26.23;;;;;;;7.38;59.06;100231.09;5024884;28;20034;-72
2021/01/22 10:43:46;;;;;;;54.97;26.45;;;;;;;7.35;58.98;100232.19;5025186;28;20049;-70
2021/01/22 10:46:12;;;;;;;63.40;28.50;;;;;;;7.51;58.23;100231.72;5023741;28;20259;-71
2021/01/22 10:48:37;;;;;;;69.70;31.10;;;;;;;7.64;58.76;100225.28;5025045;28;20095;-66
2021/01/22 10:51:04;;;;;;;62.03;30.70;;;;;;;7.41;59.23;100217.66;5033308;28;20037;-66
2021/01/22 10:53:29;;;;;;;78.05;33.90;;;;;;;7.46;59.51;100215.47;5044774;28;20212;-66
2021/01/22 10:55:55;;;;;;;66.80;31.70;;;;;;;7.58;59.02;100217.06;5042576;28;20037;-66
2021/01/22 10:58:20;;;;;;;73.97;34.58;;;;;;;7.22;59.92;100213.94;5033839;28;20196;-66
2021/01/22 11:00:47;;;;;;;69.63;34.15;;;;;;;7.23;61.18;100207.69;5032839;28;20021;-66
2021/01/22 11:03:12;;;;;;;95.57;45.35;;;;;;;7.48;60.01;100203.84;5044543;28;20052;-66
2021/01/22 11:05:37;;;;;;;71.85;35.88;;;;;;;7.77;57.88;100214.50;5030953;28;20137;-66
2021/01/22 11:08:03;;;;;;;70.88;32.25;;;;;;;7.76;57.50;100204.09;5024503;28;20227;-70
2021/01/22 11:10:29;;;;;;;70.65;34.22;;;;;;;7.78;58.24;100194.25;5024196;28;20036;-66
2021/01/22 11:12:56;;;;;;;74.97;37.42;;;;;;;7.86;57.46;100187.34;5027152;28;20061;-64
2021/01/22 11:15:21;;;;;;;71.85;36.83;;;;;;;7.63;58.20;100191.16;5044183;28;20025;-70
2021/01/22 11:17:47;;;;;;;78.95;35.97;;;;;;;7.74;57.86;100182.31;5043946;28;20088;-67
2021/01/22 11:20:13;;;;;;;74.95;35.50;;;;;;;7.47;58.61;100169.72;5042968;28;20335;-66